Time,TemperatureF,DewpointF,PressureIn,WindDirection,WindDirectionDegrees,WindSpeedMPH,WindSpeedGustMPH,Humidity,HourlyPrecipIn,Conditions,Clouds,dailyrainin,SolarRadiationWatts/m^2,SoftwareType,DateUTC
2013-06-04 00:02:00,76.0,43.0,-100.00,SSW,192,11.0,18.0,31,0.00,,,0.00,0.000000,,2013-06-04 07:02:00,
2013-06-04 00:12:00,76.0,43.0,-100.00,SSW,192,11.0,18.0,31,0.00,,,0.00,0.000000,,2013-06-04 07:12:00,
2013-06-04 00:32:00,74.0,41.0,-100.00,South,185,5.0,12.0,31,0.00,,,0.00,0.000000,,2013-06-04 07:32:00,
2013-06-04 00:42:00,74.0,41.0,-100.00,South,185,5.0,12.0,31,0.00,,,0.00,0.000000,,2013-06-04 07:42:00,
2013-06-04 00:52:00,74.0,41.0,-100.00,South,185,5.0,12.0,31,0.00,,,0.00,0.000000,,2013-06-04 07:52:00,
2013-06-04 01:02:00,74.0,41.0,-100.00,South,185,5.0,12.0,31,0.00,,,0.00,0.000000,,2013-06-04 08:02:00,
2013-06-04 01:12:00,74.0,41.0,-100.00,South,185,5.0,12.0,31,0.00,,,0.00,0.000000,,2013-06-04 08:12:00,
2013-06-04 01:32:00,74.0,44.0,-100.00,SW,220,6.0,18.0,34,0.00,,,0.00,0.000000,,2013-06-04 08:32:00,
2013-06-04 01:42:00,74.0,44.0,-100.00,SW,220,6.0,18.0,34,0.00,,,0.00,0.000000,,2013-06-04 08:42:00,
2013-06-04 01:52:00,74.0,44.0,-100.00,SW,220,6.0,18.0,34,0.00,,,0.00,0.000000,,2013-06-04 08:52:00,
2013-06-04 02:02:00,74.0,44.0,-100.00,SW,220,6.0,18.0,34,0.00,,,0.00,0.000000,,2013-06-04 09:02:00,
2013-06-04 02:12:00,74.0,44.0,-100.00,SW,220,6.0,18.0,34,0.00,,,0.00,0.000000,,2013-06-04 09:12:00,
2013-06-04 02:43:00,72.0,44.0,-100.00,SSE,151,5.0,10.0,36,0.00,,,0.00,0.000000,,2013-06-04 09:43:00,
2013-06-04 02:53:00,72.0,44.0,-100.00,SSE,151,5.0,10.0,36,0.00,,,0.00,0.000000,,2013-06-04 09:53:00,
2013-06-04 03:02:00,72.0,44.0,-100.00,SSE,151,5.0,10.0,36,0.00,,,0.00,0.000000,,2013-06-04 10:02:00,
2013-06-04 03:12:00,72.0,44.0,-100.00,SSE,151,5.0,10.0,36,0.00,,,0.00,0.000000,,2013-06-04 10:12:00,
2013-06-04 03:33:00,70.0,43.0,-100.00,SSW,198,4.0,9.0,37,0.00,,,0.00,0.000000,,2013-06-04 10:33:00,
2013-06-04 03:42:00,70.0,43.0,-100.00,SSW,198,4.0,9.0,37,0.00,,,0.00,0.000000,,2013-06-04 10:42:00,
2013-06-04 03:53:00,70.0,43.0,-100.00,SSW,198,4.0,9.0,37,0.00,,,0.00,0.000000,,2013-06-04 10:53:00,
2013-06-04 04:02:00,70.0,43.0,-100.00,SSW,198,4.0,9.0,37,0.00,,,0.00,0.000000,,2013-06-04 11:02:00,
2013-06-04 04:12:00,70.0,43.0,-100.00,SSW,198,4.0,9.0,37,0.00,,,0.00,0.000000,,2013-06-04 11:12:00,
2013-06-04 04:32:00,65.0,45.0,-100.00,SE,145,0.0,3.0,48,0.00,,,0.00,0.000000,,2013-06-04 11:32:00,
2013-06-04 04:43:00,65.0,45.0,-100.00,SE,145,0.0,3.0,48,0.00,,,0.00,0.000000,,2013-06-04 11:43:00,
2013-06-04 04:52:00,65.0,45.0,-100.00,SE,145,0.0,3.0,48,0.00,,,0.00,0.000000,,2013-06-04 11:52:00,
2013-06-04 05:02:00,65.0,45.0,-100.00,SE,145,0.0,3.0,48,0.00,,,0.00,0.000000,,2013-06-04 12:02:00,
2013-06-04 05:12:00,65.0,45.0,-100.00,SE,145,0.0,3.0,48,0.00,,,0.00,0.000000,,2013-06-04 12:12:00,
2013-06-04 05:42:00,63.0,45.0,-100.00,SSE,151,2.0,6.0,51,0.00,,,0.00,0.000000,,2013-06-04 12:42:00,
2013-06-04 05:52:00,63.0,45.0,-100.00,SSE,151,2.0,6.0,51,0.00,,,0.00,0.000000,,2013-06-04 12:52:00,
2013-06-04 06:02:00,63.0,45.0,-100.00,SSE,151,2.0,6.0,51,0.00,,,0.00,0.000000,,2013-06-04 13:02:00,
2013-06-04 06:12:00,63.0,45.0,-100.00,SSE,151,2.0,6.0,51,0.00,,,0.00,0.000000,,2013-06-04 13:12:00,
2013-06-04 06:32:00,63.0,46.0,-100.00,South,179,0.0,6.0,53,0.00,,,0.00,10.000000,,2013-06-04 13:32:00,
2013-06-04 06:42:00,63.0,46.0,-100.00,South,179,0.0,6.0,53,0.00,,,0.00,10.000000,,2013-06-04 13:42:00,
2013-06-04 06:52:00,63.0,46.0,-100.00,South,179,0.0,6.0,53,0.00,,,0.00,10.000000,,2013-06-04 13:52:00,
2013-06-04 07:02:00,63.0,46.0,-100.00,South,179,0.0,6.0,53,0.00,,,0.00,10.000000,,2013-06-04 14:02:00,
2013-06-04 07:12:00,63.0,46.0,-100.00,South,179,0.0,6.0,53,0.00,,,0.00,10.000000,,2013-06-04 14:12:00,
2013-06-04 07:32:00,69.0,48.0,-100.00,SSE,152,1.0,5.0,48,0.00,,,0.00,144.000000,,2013-06-04 14:32:00,
2013-06-04 07:43:00,69.0,48.0,-100.00,SSE,152,1.0,5.0,48,0.00,,,0.00,144.000000,,2013-06-04 14:43:00,
2013-06-04 07:52:00,69.0,48.0,-100.00,SSE,152,1.0,5.0,48,0.00,,,0.00,144.000000,,2013-06-04 14:52:00,
2013-06-04 08:02:00,69.0,48.0,-100.00,SSE,152,1.0,5.0,48,0.00,,,0.00,144.000000,,2013-06-04 15:02:00,
2013-06-04 08:12:00,69.0,48.0,-100.00,SSE,152,1.0,5.0,48,0.00,,,0.00,144.000000,,2013-06-04 15:12:00,
2013-06-04 08:33:00,73.0,47.0,-100.00,West,269,1.0,6.0,40,0.00,,,0.00,369.000000,,2013-06-04 15:33:00,
2013-06-04 08:42:00,73.0,47.0,-100.00,West,269,1.0,6.0,40,0.00,,,0.00,369.000000,,2013-06-04 15:42:00,
2013-06-04 08:53:00,73.0,47.0,-100.00,West,269,1.0,6.0,40,0.00,,,0.00,369.000000,,2013-06-04 15:53:00,
2013-06-04 09:03:00,73.0,47.0,-100.00,West,269,1.0,6.0,40,0.00,,,0.00,369.000000,,2013-06-04 16:03:00,
2013-06-04 09:12:00,73.0,47.0,-100.00,West,269,1.0,6.0,40,0.00,,,0.00,369.000000,,2013-06-04 16:12:00,
2013-06-04 09:33:00,78.0,49.0,-100.00,SE,136,2.0,6.0,36,0.00,,,-99.99,570.000000,,2013-06-04 16:33:00,
2013-06-04 09:42:00,78.0,49.0,-100.00,SE,136,2.0,6.0,36,0.00,,,-99.99,570.000000,,2013-06-04 16:42:00,
2013-06-04 09:53:00,78.0,49.0,-100.00,SE,136,2.0,6.0,36,0.00,,,-99.99,570.000000,,2013-06-04 16:53:00,
2013-06-04 10:02:00,78.0,49.0,-100.00,SE,136,2.0,6.0,36,0.00,,,-99.99,570.000000,,2013-06-04 17:02:00,
2013-06-04 10:12:00,78.0,49.0,-100.00,SE,136,2.0,6.0,36,0.00,,,-99.99,570.000000,,2013-06-04 17:12:00,
2013-06-04 10:33:00,83.0,49.0,-100.00,NNW,346,4.0,8.0,31,0.00,,,0.00,745.000000,,2013-06-04 17:33:00,
2013-06-04 10:42:00,83.0,49.0,-100.00,NNW,346,4.0,8.0,31,0.00,,,0.00,745.000000,,2013-06-04 17:42:00,
2013-06-04 10:52:00,83.0,49.0,-100.00,NNW,346,4.0,8.0,31,0.00,,,0.00,745.000000,,2013-06-04 17:52:00,
2013-06-04 11:02:00,83.0,49.0,-100.00,NNW,346,4.0,8.0,31,0.00,,,0.00,745.000000,,2013-06-04 18:02:00,
2013-06-04 11:12:00,83.0,49.0,-100.00,NNW,346,4.0,8.0,31,0.00,,,0.00,745.000000,,2013-06-04 18:12:00,
2013-06-04 11:32:00,87.0,48.0,-100.00,NW,307,3.0,9.0,26,0.00,,,0.00,879.000000,,2013-06-04 18:32:00,
2013-06-04 11:42:00,87.0,48.0,-100.00,NW,307,3.0,9.0,26,0.00,,,0.00,879.000000,,2013-06-04 18:42:00,
2013-06-04 11:52:00,87.0,48.0,-100.00,NW,307,3.0,9.0,26,0.00,,,0.00,879.000000,,2013-06-04 18:52:00,
2013-06-04 12:02:00,87.0,48.0,-100.00,NW,307,3.0,9.0,26,0.00,,,0.00,879.000000,,2013-06-04 19:02:00,
2013-06-04 12:12:00,87.0,48.0,-100.00,NW,307,3.0,9.0,26,0.00,,,0.00,879.000000,,2013-06-04 19:12:00,
2013-06-04 12:33:00,90.0,47.0,-100.00,NW,322,2.0,14.0,23,0.00,,,0.00,959.000000,,2013-06-04 19:33:00,
2013-06-04 12:42:00,90.0,47.0,-100.00,NW,322,2.0,14.0,23,0.00,,,0.00,959.000000,,2013-06-04 19:42:00,
2013-06-04 12:52:00,90.0,47.0,-100.00,NW,322,2.0,14.0,23,0.00,,,0.00,959.000000,,2013-06-04 19:52:00,
2013-06-04 13:02:00,90.0,47.0,-100.00,NW,322,2.0,14.0,23,0.00,,,0.00,959.000000,,2013-06-04 20:02:00,
2013-06-04 13:12:00,90.0,47.0,-100.00,NW,322,2.0,14.0,23,0.00,,,0.00,959.000000,,2013-06-04 20:12:00,
2013-06-04 13:32:00,88.0,47.0,-100.00,WSW,238,9.0,22.0,24,0.00,,,0.00,985.000000,,2013-06-04 20:32:00,
2013-06-04 13:42:00,88.0,47.0,-100.00,WSW,238,9.0,22.0,24,0.00,,,0.00,985.000000,,2013-06-04 20:42:00,
2013-06-04 13:53:00,88.0,47.0,-100.00,WSW,238,9.0,22.0,24,0.00,,,0.00,985.000000,,2013-06-04 20:53:00,
2013-06-04 14:02:00,88.0,47.0,-100.00,WSW,238,9.0,22.0,24,0.00,,,0.00,985.000000,,2013-06-04 21:02:00,
2013-06-04 14:12:00,88.0,47.0,-100.00,WSW,238,9.0,22.0,24,0.00,,,0.00,985.000000,,2013-06-04 21:12:00,
2013-06-04 14:42:00,87.0,49.0,-100.00,WSW,244,18.0,29.0,27,0.00,,,0.00,968.000000,,2013-06-04 21:42:00,
2013-06-04 14:53:00,87.0,49.0,-100.00,WSW,244,18.0,29.0,27,0.00,,,0.00,968.000000,,2013-06-04 21:53:00,
2013-06-04 15:02:00,87.0,49.0,-100.00,WSW,244,18.0,29.0,27,0.00,,,0.00,968.000000,,2013-06-04 22:02:00,
2013-06-04 15:12:00,87.0,49.0,-100.00,WSW,244,18.0,29.0,27,0.00,,,0.00,968.000000,,2013-06-04 22:12:00,
2013-06-04 15:33:00,86.0,48.0,-100.00,WSW,242,20.0,32.0,27,0.00,,,0.00,895.000000,,2013-06-04 22:33:00,
2013-06-04 15:42:00,86.0,48.0,-100.00,WSW,242,20.0,32.0,27,0.00,,,0.00,895.000000,,2013-06-04 22:42:00,
2013-06-04 15:52:00,86.0,48.0,-100.00,WSW,242,20.0,32.0,27,0.00,,,0.00,895.000000,,2013-06-04 22:52:00,
2013-06-04 16:02:00,86.0,48.0,-100.00,WSW,242,20.0,32.0,27,0.00,,,0.00,895.000000,,2013-06-04 23:02:00,
2013-06-04 16:12:00,86.0,48.0,-100.00,WSW,242,20.0,32.0,27,0.00,,,0.00,895.000000,,2013-06-04 23:12:00,
2013-06-04 16:32:00,85.0,47.0,-100.00,WSW,239,21.0,33.0,27,0.00,,,0.00,760.000000,,2013-06-04 23:32:00,
2013-06-04 16:42:00,85.0,47.0,-100.00,WSW,239,21.0,33.0,27,0.00,,,0.00,760.000000,,2013-06-04 23:42:00,
2013-06-04 16:52:00,85.0,47.0,-100.00,WSW,239,21.0,33.0,27,0.00,,,0.00,760.000000,,2013-06-04 23:52:00,
2013-06-04 17:02:00,85.0,47.0,-100.00,WSW,239,21.0,33.0,27,0.00,,,0.00,760.000000,,2013-06-05 00:02:00,
2013-06-04 17:12:00,85.0,47.0,-100.00,WSW,239,21.0,33.0,27,0.00,,,0.00,760.000000,,2013-06-05 00:12:00,
2013-06-04 17:42:00,87.0,49.0,-100.00,WSW,243,16.0,30.0,27,0.00,,,0.00,579.000000,,2013-06-05 00:42:00,
2013-06-04 17:52:00,87.0,49.0,-100.00,WSW,243,16.0,30.0,27,0.00,,,0.00,579.000000,,2013-06-05 00:52:00,
2013-06-04 18:02:00,87.0,49.0,-100.00,WSW,243,16.0,30.0,27,0.00,,,0.00,579.000000,,2013-06-05 01:02:00,
2013-06-04 18:12:00,87.0,49.0,-100.00,WSW,243,16.0,30.0,27,0.00,,,0.00,579.000000,,2013-06-05 01:12:00,
2013-06-04 18:32:00,85.0,46.0,-100.00,WSW,237,12.0,29.0,26,0.00,,,0.00,374.000000,,2013-06-05 01:32:00,
2013-06-04 18:42:00,85.0,46.0,-100.00,WSW,237,12.0,29.0,26,0.00,,,0.00,374.000000,,2013-06-05 01:42:00,
2013-06-04 18:52:00,85.0,46.0,-100.00,WSW,237,12.0,29.0,26,0.00,,,0.00,374.000000,,2013-06-05 01:52:00,
2013-06-04 19:02:00,85.0,46.0,-100.00,WSW,237,12.0,29.0,26,0.00,,,0.00,374.000000,,2013-06-05 02:02:00,
2013-06-04 19:12:00,85.0,46.0,-100.00,WSW,237,12.0,29.0,26,0.00,,,0.00,374.000000,,2013-06-05 02:12:00,
2013-06-04 19:32:00,80.0,45.0,-100.00,SSW,204,14.0,29.0,29,0.00,,,0.00,158.000000,,2013-06-05 02:32:00,
2013-06-04 19:42:00,80.0,45.0,-100.00,SSW,204,14.0,29.0,29,0.00,,,0.00,158.000000,,2013-06-05 02:42:00,
2013-06-04 19:52:00,80.0,45.0,-100.00,SSW,204,14.0,29.0,29,0.00,,,0.00,158.000000,,2013-06-05 02:52:00,
2013-06-04 20:02:00,80.0,45.0,-100.00,SSW,204,14.0,29.0,29,0.00,,,0.00,158.000000,,2013-06-05 03:02:00,
2013-06-04 20:12:00,80.0,45.0,-100.00,SSW,204,14.0,29.0,29,0.00,,,0.00,158.000000,,2013-06-05 03:12:00,
2013-06-04 20:33:00,77.0,47.0,-100.00,SW,221,17.0,33.0,35,0.00,,,0.00,18.000000,,2013-06-05 03:33:00,
2013-06-04 20:43:00,77.0,47.0,-100.00,SW,221,17.0,33.0,35,0.00,,,0.00,18.000000,,2013-06-05 03:43:00,
2013-06-04 20:53:00,77.0,47.0,-100.00,SW,221,17.0,33.0,35,0.00,,,0.00,18.000000,,2013-06-05 03:53:00,
2013-06-04 21:02:00,77.0,47.0,-100.00,SW,221,17.0,33.0,35,0.00,,,0.00,18.000000,,2013-06-05 04:02:00,
2013-06-04 21:12:00,77.0,47.0,-100.00,SW,221,17.0,33.0,35,0.00,,,0.00,18.000000,,2013-06-05 04:12:00,
2013-06-04 21:33:00,76.0,48.0,-100.00,SSE,168,8.0,21.0,37,0.00,,,0.00,0.000000,,2013-06-05 04:33:00,
2013-06-04 21:42:00,76.0,48.0,-100.00,SSE,168,8.0,21.0,37,0.00,,,0.00,0.000000,,2013-06-05 04:42:00,
2013-06-04 21:53:00,76.0,48.0,-100.00,SSE,168,8.0,21.0,37,0.00,,,0.00,0.000000,,2013-06-05 04:53:00,
2013-06-04 22:02:00,76.0,48.0,-100.00,SSE,168,8.0,21.0,37,0.00,,,0.00,0.000000,,2013-06-05 05:02:00,
2013-06-04 22:12:00,76.0,48.0,-100.00,SSE,168,8.0,21.0,37,0.00,,,0.00,0.000000,,2013-06-05 05:12:00,
2013-06-04 22:32:00,74.0,48.0,-100.00,South,189,8.0,19.0,40,0.00,,,0.00,0.000000,,2013-06-05 05:32:00,
2013-06-04 22:42:00,74.0,48.0,-100.00,South,189,8.0,19.0,40,0.00,,,0.00,0.000000,,2013-06-05 05:42:00,
2013-06-04 22:52:00,74.0,48.0,-100.00,South,189,8.0,19.0,40,0.00,,,0.00,0.000000,,2013-06-05 05:52:00,
2013-06-04 23:02:00,74.0,48.0,-100.00,South,189,8.0,19.0,40,0.00,,,0.00,0.000000,,2013-06-05 06:02:00,
2013-06-04 23:12:00,74.0,48.0,-100.00,South,189,8.0,19.0,40,0.00,,,0.00,0.000000,,2013-06-05 06:12:00,
2013-06-04 23:32:00,75.0,49.0,-100.00,SSW,213,8.0,19.0,40,0.00,,,0.00,0.000000,,2013-06-05 06:32:00,
2013-06-04 23:42:00,75.0,49.0,-100.00,SSW,213,8.0,19.0,40,0.00,,,0.00,0.000000,,2013-06-05 06:42:00,
2013-06-04 23:52:00,75.0,49.0,-100.00,SSW,213,8.0,19.0,40,0.00,,,0.00,0.000000,,2013-06-05 06:52:00,